Terminal Aerodrome Forecast
Issued by NWS

Home | Current Version | Previous Version | Text Only | Print | Product List | Glossary On
Versions: 1 2 3 4 5 6 7 8 9 10 11 12 13 14 15
000
FTUS45 KTFX 271739
TAFBZN
TAF
KBZN 271739Z 2718/2818 28009KT P6SM SCT010 BKN035
      TEMPO 2718/2721 -SHRA BKN010
     FM280200 29007KT P6SM OVC050
     FM281100 22004KT 4SM -SHSNRA BR SCT015 BKN035=

USA.gov is the U.S. government's official web portal to all federal, state and local government web resources and services.